Time;durP1;ratioP1;P1;durP2;ratioP2;P2;SDS_P1;SDS_P2;PMS_P1;PMS_P2;Temp;Humidity;BMP_temperature;BMP_pressure;BME280_temperature;BME280_humidity;BME280_pressure;Samples;Min_cycle;Max_cycle;Signal;HPM_P1;HPM_P2
2022/05/22 00:02:07;;;;;;;3.60;2.63;;;20.00;45.80;;;;;;5076973;28;20052;-76
2022/05/22 00:04:34;;;;;;;2.50;1.90;;;20.00;46.40;;;;;;5095070;28;20072;-78
2022/05/22 00:06:59;;;;;;;2.22;1.48;;;20.00;46.40;;;;;;5077115;28;20020;-80
2022/05/22 00:09:28;;;;;;;4.03;2.67;;;20.00;46.20;;;;;;5077263;28;20382;-80
2022/05/22 00:11:54;;;;;;;4.70;2.90;;;20.00;46.30;;;;;;5094664;28;20027;-80
2022/05/22 00:14:21;;;;;;;2.65;1.70;;;19.90;46.30;;;;;;5078614;28;20028;-80
2022/05/22 00:16:47;;;;;;;3.95;1.80;;;19.90;46.40;;;;;;5083757;28;20070;-76
2022/05/22 00:19:33;;;;;;;2.45;1.63;;;19.90;46.50;;;;;;5099000;28;20024;-76
2022/05/22 00:21:59;;;;;;;2.15;1.20;;;19.80;46.40;;;;;;5081142;28;20046;-78
2022/05/22 00:24:27;;;;;;;2.40;1.48;;;19.80;46.10;;;;;;5099213;28;20027;-82
2022/05/22 00:26:53;;;;;;;14.55;9.15;;;19.80;46.10;;;;;;5099106;28;20078;-79
2022/05/22 00:29:19;;;;;;;20.63;13.02;;;19.70;46.70;;;;;;5081383;28;20414;-77
2022/05/22 00:31:45;;;;;;;14.10;8.35;;;19.60;46.70;;;;;;5098974;28;20023;-80
2022/05/22 00:34:12;;;;;;;12.45;7.78;;;19.60;46.70;;;;;;5081978;28;20023;-80
2022/05/22 00:36:38;;;;;;;11.50;4.28;;;19.60;47.10;;;;;;5101619;28;20028;-80
2022/05/22 00:39:05;;;;;;;3.08;2.00;;;19.60;47.10;;;;;;5101500;28;20382;-79
2022/05/22 00:41:32;;;;;;;2.30;1.40;;;19.60;47.10;;;;;;5101091;28;20058;-80
2022/05/22 00:44:00;;;;;;;2.55;1.55;;;19.60;46.90;;;;;;5101911;28;20032;-81
2022/05/22 00:46:27;;;;;;;7.85;5.28;;;19.50;47.20;;;;;;5083825;28;20016;-78
2022/05/22 00:49:10;;;;;;;4.93;3.08;;;19.50;47.90;;;;;;5101021;28;20077;-79
2022/05/22 00:51:41;;;;;;;8.00;4.55;;;19.60;48.30;;;;;;5076724;28;20039;-80
2022/05/22 00:54:10;;;;;;;4.35;2.90;;;19.60;48.20;;;;;;5094511;28;20099;-79
2022/05/22 00:56:43;;;;;;;12.73;4.43;;;19.60;47.90;;;;;;5094312;28;20047;-79
2022/05/22 00:59:13;;;;;;;6.25;4.35;;;19.60;48.50;;;;;;5094352;28;20059;-80
2022/05/22 01:01:40;;;;;;;4.97;2.40;;;19.60;48.30;;;;;;5094058;28;20040;-78
2022/05/22 01:04:11;;;;;;;4.47;1.30;;;19.60;47.90;;;;;;5080365;28;20027;-78
2022/05/22 01:06:37;;;;;;;1.90;1.30;;;19.60;47.60;;;;;;5074032;28;20039;-80
2022/05/22 01:09:03;;;;;;;3.78;2.97;;;19.60;47.30;;;;;;5055740;28;20017;-80
2022/05/22 01:11:33;;;;;;;21.02;13.30;;;19.70;47.50;;;;;;5073470;28;20024;-81
2022/05/22 01:14:10;;;;;;;18.80;12.15;;;19.60;47.80;;;;;;5056188;28;20031;-81
2022/05/22 01:16:36;;;;;;;13.70;7.78;;;19.60;48.10;;;;;;5073257;28;20031;-82
2022/05/22 01:19:10;;;;;;;7.82;4.70;;;19.60;48.00;;;;;;5056905;28;20056;-81
2022/05/22 01:21:36;;;;;;;3.88;3.38;;;19.60;48.30;;;;;;5093278;28;20035;-79
2022/05/22 01:24:02;;;;;;;4.28;1.75;;;19.60;48.10;;;;;;5093641;28;20032;-81
2022/05/22 01:26:29;;;;;;;4.75;1.50;;;19.70;47.90;;;;;;5092095;28;20107;-81
2022/05/22 01:28:56;;;;;;;8.45;6.78;;;19.60;47.90;;;;;;5093360;28;20099;-81
2022/05/22 01:31:22;;;;;;;4.53;2.58;;;19.60;48.40;;;;;;5093473;28;20135;-78
2022/05/22 01:33:48;;;;;;;6.25;2.40;;;19.50;48.60;;;;;;5093278;28;20115;-79
2022/05/22 01:36:16;;;;;;;6.05;3.60;;;19.50;48.70;;;;;;5091835;28;20529;-81
2022/05/22 01:38:42;;;;;;;3.22;2.72;;;19.50;48.60;;;;;;5075071;28;20028;-80
2022/05/22 01:41:08;;;;;;;5.43;4.13;;;19.40;49.00;;;;;;5075247;28;20417;-76
2022/05/22 01:43:35;;;;;;;3.15;2.22;;;19.40;49.10;;;;;;5092846;28;20020;-77
2022/05/22 01:46:02;;;;;;;2.75;1.75;;;19.30;49.10;;;;;;5092986;28;20469;-77
2022/05/22 01:48:28;;;;;;;1.60;1.27;;;19.20;49.00;;;;;;5092975;28;20081;-79
2022/05/22 01:50:54;;;;;;;5.45;3.58;;;19.20;49.00;;;;;;5093682;28;20052;-74
2022/05/22 01:53:21;;;;;;;7.28;5.13;;;19.10;49.40;;;;;;5098020;28;20035;-76
2022/05/22 01:55:48;;;;;;;7.15;4.90;;;19.00;49.80;;;;;;5109503;28;20031;-77
2022/05/22 01:58:13;;;;;;;6.40;5.30;;;19.00;49.80;;;;;;5090922;28;20024;-76
2022/05/22 02:00:40;;;;;;;3.67;2.50;;;18.90;50.60;;;;;;5108329;28;20056;-76
2022/05/22 02:03:07;;;;;;;4.38;1.73;;;18.80;50.80;;;;;;5091638;28;20031;-77
2022/05/22 02:05:34;;;;;;;3.60;1.88;;;18.80;50.50;;;;;;5069240;28;20025;-76
2022/05/22 02:10:46;;;;;;;;;;;18.60;50.30;;;;;;5089299;28;20050;-76
2022/05/22 02:13:12;;;;;;;2.97;1.52;;;18.60;49.30;;;;;;5098411;28;19922;-79
2022/05/22 02:15:38;;;;;;;3.50;1.52;;;18.60;50.00;;;;;;5091233;28;20035;-76
2022/05/22 02:18:04;;;;;;;1.48;1.25;;;18.50;50.20;;;;;;5090394;28;20028;-76
2022/05/22 02:20:30;;;;;;;1.20;1.10;;;18.40;50.20;;;;;;5107623;28;20054;-77
2022/05/22 02:22:57;;;;;;;2.13;1.33;;;18.40;50.40;;;;;;5108062;28;20035;-76
2022/05/22 02:25:29;;;;;;;2.05;1.23;;;18.30;50.50;;;;;;5108473;28;20020;-77
2022/05/22 02:27:56;;;;;;;1.52;1.33;;;18.20;50.70;;;;;;5108069;28;20048;-80
2022/05/22 02:30:27;;;;;;;1.85;1.33;;;18.20;50.80;;;;;;5096759;28;20016;-81
2022/05/22 02:32:52;;;;;;;2.10;1.55;;;18.20;50.90;;;;;;5097634;28;20024;-76
2022/05/22 02:35:18;;;;;;;2.90;1.98;;;18.10;51.00;;;;;;5099082;28;20105;-78
2022/05/22 02:37:50;;;;;;;2.20;2.00;;;18.10;51.20;;;;;;5096516;28;20031;-80
2022/05/22 02:40:18;;;;;;;1.85;1.48;;;18.10;51.30;;;;;;5106006;28;20080;-76
2022/05/22 02:42:48;;;;;;;3.35;2.10;;;18.00;51.10;;;;;;5108844;28;20024;-76
2022/05/22 02:45:21;;;;;;;14.63;9.35;;;18.00;51.20;;;;;;5089710;28;20020;-75
2022/05/22 02:47:47;;;;;;;5.43;4.72;;;18.00;51.60;;;;;;5108034;28;20048;-78
2022/05/22 02:50:14;;;;;;;11.95;2.08;;;17.90;51.40;;;;;;5108765;28;20091;-76
2022/05/22 02:52:40;;;;;;;2.35;1.85;;;17.90;51.50;;;;;;5108584;28;20058;-76
2022/05/22 02:55:07;;;;;;;3.53;1.83;;;17.80;51.50;;;;;;5107931;28;20024;-76
2022/05/22 02:57:33;;;;;;;1.77;1.42;;;17.80;51.40;;;;;;5104735;28;20024;-78
2022/05/22 02:59:59;;;;;;;2.42;1.30;;;17.80;51.50;;;;;;5075059;28;20032;-76
2022/05/22 03:02:25;;;;;;;1.90;1.33;;;17.70;51.50;;;;;;5056859;28;20435;-79
2022/05/22 03:04:51;;;;;;;13.95;8.43;;;17.60;51.60;;;;;;5075369;28;20025;-80
2022/05/22 03:07:18;;;;;;;9.23;7.53;;;17.60;52.00;;;;;;5057759;28;20389;-81
2022/05/22 03:09:46;;;;;;;10.05;7.28;;;17.50;52.70;;;;;;5075292;28;20407;-79
2022/05/22 03:12:16;;;;;;;11.38;9.00;;;17.50;52.90;;;;;;5075124;28;20362;-78
2022/05/22 03:14:52;;;;;;;3.88;3.00;;;17.50;52.90;;;;;;5075094;28;20106;-76
2022/05/22 03:17:18;;;;;;;4.15;1.60;;;17.50;53.10;;;;;;5057249;28;20020;-81
2022/05/22 03:19:44;;;;;;;4.53;1.20;;;17.50;52.70;;;;;;5057141;28;20027;-79
2022/05/22 03:22:11;;;;;;;1.73;1.13;;;17.50;52.70;;;;;;5075168;28;20024;-79
2022/05/22 03:24:38;;;;;;;2.58;1.23;;;17.50;52.90;;;;;;5075121;28;20394;-83
2022/05/22 03:27:07;;;;;;;3.92;1.50;;;17.50;52.90;;;;;;5057192;28;20021;-82
2022/05/22 03:29:33;;;;;;;1.60;1.30;;;17.50;53.60;;;;;;5075070;28;20378;-77
2022/05/22 03:31:59;;;;;;;2.08;1.35;;;17.50;52.70;;;;;;5075028;28;20428;-79
2022/05/22 03:34:25;;;;;;;3.38;1.30;;;17.50;52.50;;;;;;5057886;28;20021;-79
2022/05/22 03:36:51;;;;;;;2.15;1.25;;;17.50;52.30;;;;;;5067045;28;20077;-76
2022/05/22 03:39:17;;;;;;;3.35;1.35;;;17.50;52.30;;;;;;5066365;28;20387;-76
2022/05/22 03:41:43;;;;;;;2.63;1.17;;;17.40;52.20;;;;;;5085984;28;20048;-77
2022/05/22 03:44:09;;;;;;;3.15;1.48;;;17.40;52.30;;;;;;5084885;28;20390;-79
2022/05/22 03:46:35;;;;;;;1.95;1.20;;;17.40;52.30;;;;;;5079675;28;20055;-77
2022/05/22 03:49:01;;;;;;;2.92;1.70;;;17.40;52.50;;;;;;5080319;28;20458;-77
2022/05/22 03:51:27;;;;;;;2.22;1.65;;;17.40;52.70;;;;;;5078654;28;20049;-76
2022/05/22 03:53:53;;;;;;;5.95;1.52;;;17.40;53.00;;;;;;5086554;28;20052;-76
2022/05/22 03:56:20;;;;;;;3.22;2.63;;;17.40;53.00;;;;;;5086599;28;20024;-76
2022/05/22 03:58:47;;;;;;;6.18;4.22;;;17.40;53.30;;;;;;5085489;28;20021;-76
2022/05/22 04:01:13;;;;;;;12.32;8.57;;;17.50;53.30;;;;;;5086675;28;20047;-77
2022/05/22 04:03:40;;;;;;;11.38;8.00;;;17.50;53.50;;;;;;5086595;28;20107;-76
2022/05/22 04:06:08;;;;;;;9.10;4.80;;;17.60;53.60;;;;;;5085248;28;20040;-77
2022/05/22 04:08:34;;;;;;;4.85;2.97;;;17.60;53.70;;;;;;5067576;28;20025;-77
2022/05/22 04:11:09;;;;;;;4.03;2.10;;;17.70;53.60;;;;;;5075123;28;20224;-77
2022/05/22 04:13:35;;;;;;;4.75;2.53;;;17.80;53.50;;;;;;5061095;28;20024;-75
2022/05/22 04:16:01;;;;;;;3.45;2.13;;;17.90;53.30;;;;;;5077228;28;20393;-80
2022/05/22 04:18:27;;;;;;;4.65;2.20;;;18.00;53.40;;;;;;5074165;28;20415;-79
2022/05/22 04:20:53;;;;;;;2.75;1.63;;;18.00;53.10;;;;;;5074046;28;20021;-78
2022/05/22 04:26:04;;;;;;;2.55;1.55;;;18.10;53.00;;;;;;5074435;28;20381;-79
2022/05/22 04:28:30;;;;;;;2.08;1.75;;;18.20;52.70;;;;;;5074169;28;20440;-79
2022/05/22 04:30:57;;;;;;;2.45;1.40;;;18.30;52.60;;;;;;5073985;28;20021;-81
2022/05/22 04:33:24;;;;;;;2.20;1.20;;;18.40;52.60;;;;;;5073833;28;20016;-78
2022/05/22 04:35:50;;;;;;;3.17;1.50;;;18.40;52.50;;;;;;5055898;28;20077;-77
2022/05/22 04:38:16;;;;;;;2.92;1.40;;;18.50;52.20;;;;;;5073747;28;20103;-78
2022/05/22 04:40:42;;;;;;;4.22;1.45;;;18.60;51.90;;;;;;5055992;28;20024;-79
2022/05/22 04:43:09;;;;;;;4.57;1.73;;;18.70;51.60;;;;;;5073718;28;20031;-80
2022/05/22 04:45:39;;;;;;;2.35;1.30;;;18.80;51.30;;;;;;5055811;28;20023;-80
2022/05/22 04:48:06;;;;;;;2.72;1.40;;;18.80;51.20;;;;;;5073613;28;20013;-77
2022/05/22 04:50:32;;;;;;;4.72;1.70;;;18.80;51.00;;;;;;5073469;28;20017;-81
2022/05/22 04:52:59;;;;;;;3.53;1.38;;;18.90;50.80;;;;;;5073524;28;20063;-79
2022/05/22 04:55:25;;;;;;;2.38;1.35;;;18.90;50.70;;;;;;5074033;28;20058;-79
2022/05/22 04:57:51;;;;;;;2.78;1.38;;;18.90;50.50;;;;;;5063195;28;20020;-80
2022/05/22 05:00:18;;;;;;;3.47;1.73;;;18.90;50.50;;;;;;5093577;28;20098;-81
2022/05/22 05:02:43;;;;;;;1.75;1.20;;;18.90;50.30;;;;;;5093565;28;20028;-80
2022/05/22 05:05:10;;;;;;;2.38;1.35;;;18.90;50.10;;;;;;5092338;28;20016;-78
2022/05/22 05:07:42;;;;;;;5.18;1.50;;;18.90;50.00;;;;;;5092357;28;20020;-77
2022/05/22 05:10:10;;;;;;;6.18;1.50;;;18.90;49.90;;;;;;5092353;28;20027;-77
2022/05/22 05:12:39;;;;;;;2.75;1.20;;;18.90;49.80;;;;;;5093844;28;20027;-80
2022/05/22 05:15:07;;;;;;;1.50;1.23;;;19.00;49.60;;;;;;5093424;28;20024;-80
2022/05/22 05:17:32;;;;;;;3.95;1.02;;;19.00;49.40;;;;;;5093531;28;20475;-82
2022/05/22 05:19:59;;;;;;;3.30;1.30;;;19.00;49.40;;;;;;5075441;28;20056;-81
2022/05/22 05:22:26;;;;;;;1.20;1.10;;;19.10;49.40;;;;;;5075191;28;20031;-78
2022/05/22 05:24:52;;;;;;;2.42;1.33;;;19.00;49.40;;;;;;5092131;28;20024;-76
2022/05/22 05:27:17;;;;;;;2.78;1.60;;;19.10;49.40;;;;;;5092779;28;20103;-79
2022/05/22 05:29:43;;;;;;;2.50;1.45;;;19.10;49.50;;;;;;5093168;28;20095;-79
2022/05/22 05:32:09;;;;;;;1.80;1.50;;;19.10;49.50;;;;;;5091916;28;20026;-79
2022/05/22 05:34:35;;;;;;;1.80;1.30;;;19.20;49.60;;;;;;5093251;28;20485;-78
2022/05/22 05:37:01;;;;;;;4.55;1.40;;;19.20;49.70;;;;;;5093107;28;20016;-82
2022/05/22 05:39:27;;;;;;;3.03;1.45;;;19.30;49.80;;;;;;5093155;28;20055;-77
2022/05/22 05:41:55;;;;;;;2.95;1.50;;;19.30;49.50;;;;;;5093142;28;20073;-83
2022/05/22 05:44:21;;;;;;;1.63;1.10;;;19.40;49.40;;;;;;5093072;28;20089;-77
2022/05/22 05:46:47;;;;;;;3.88;1.60;;;19.40;49.40;;;;;;5092958;28;20023;-78
2022/05/22 05:49:13;;;;;;;2.42;1.30;;;19.50;49.20;;;;;;5091765;28;20482;-80
2022/05/22 05:51:40;;;;;;;2.55;1.67;;;19.50;48.90;;;;;;5093125;28;20016;-79
2022/05/22 05:54:06;;;;;;;2.47;1.42;;;19.60;48.60;;;;;;5093083;28;20070;-78
2022/05/22 05:56:31;;;;;;;2.67;1.75;;;19.60;48.60;;;;;;5084323;28;20059;-79
2022/05/22 05:58:57;;;;;;;3.65;1.45;;;19.60;48.50;;;;;;5054914;28;20147;-78
2022/05/22 06:01:24;;;;;;;4.32;1.52;;;19.70;48.60;;;;;;5072668;28;20052;-77
2022/05/22 06:03:53;;;;;;;1.92;1.30;;;19.80;48.50;;;;;;5072629;28;20028;-81
2022/05/22 06:06:20;;;;;;;2.53;1.38;;;19.80;48.20;;;;;;5072669;28;20248;-80
2022/05/22 06:08:46;;;;;;;1.70;1.23;;;19.90;48.00;;;;;;5054726;28;20049;-77
2022/05/22 06:11:12;;;;;;;2.25;1.50;;;19.90;47.80;;;;;;5072673;28;20063;-78
2022/05/22 06:13:39;;;;;;;4.30;1.48;;;20.00;47.60;;;;;;5072681;28;20473;-79
2022/05/22 06:16:06;;;;;;;6.57;1.92;;;20.00;47.40;;;;;;5054539;28;20044;-80
2022/05/22 06:18:32;;;;;;;3.03;1.65;;;20.10;47.40;;;;;;5072552;28;20024;-79
2022/05/22 06:20:58;;;;;;;3.47;1.60;;;20.20;47.50;;;;;;5054690;28;20035;-82
2022/05/22 06:23:24;;;;;;;1.73;1.50;;;20.20;47.60;;;;;;5054424;28;20024;-81
2022/05/22 06:25:50;;;;;;;4.45;2.00;;;20.30;47.40;;;;;;5054618;28;20032;-81
2022/05/22 06:28:17;;;;;;;2.83;1.58;;;20.40;47.40;;;;;;5054457;28;20048;-78
2022/05/22 06:30:43;;;;;;;4.70;2.50;;;20.50;47.40;;;;;;5054484;28;20366;-77
2022/05/22 06:33:11;;;;;;;4.28;2.03;;;20.50;47.30;;;;;;5072457;28;20517;-80
2022/05/22 06:35:40;;;;;;;9.48;3.30;;;20.60;47.20;;;;;;5072793;28;20458;-79
2022/05/22 06:38:07;;;;;;;9.15;2.53;;;20.70;47.00;;;;;;5055423;28;20474;-82
2022/05/22 06:40:36;;;;;;;7.65;3.72;;;20.70;46.90;;;;;;5076050;28;20043;-77
2022/05/22 06:43:02;;;;;;;7.63;4.25;;;20.80;47.00;;;;;;5075757;28;20021;-78
2022/05/22 06:45:29;;;;;;;10.85;4.28;;;20.90;47.20;;;;;;5077229;28;20020;-82
2022/05/22 06:47:55;;;;;;;13.13;4.38;;;20.90;47.00;;;;;;5089455;28;20024;-81
2022/05/22 06:50:24;;;;;;;6.70;4.15;;;20.90;47.00;;;;;;5077724;28;20016;-80
2022/05/22 06:52:51;;;;;;;7.53;4.03;;;21.00;47.00;;;;;;5096188;28;20031;-78
2022/05/22 06:55:17;;;;;;;10.20;5.20;;;21.10;46.80;;;;;;5082242;28;20431;-79
2022/05/22 06:57:43;;;;;;;8.25;4.18;;;21.10;46.10;;;;;;5075890;28;20359;-77
2022/05/22 07:00:14;;;;;;;8.35;3.85;;;21.20;45.70;;;;;;5075595;28;20402;-80
2022/05/22 07:02:41;;;;;;;9.90;3.47;;;21.20;45.50;;;;;;5061955;28;20142;-77
2022/05/22 07:05:09;;;;;;;6.03;3.28;;;21.30;45.20;;;;;;5085924;28;20380;-81
2022/05/22 07:07:35;;;;;;;5.57;3.28;;;21.40;45.40;;;;;;5081806;28;20036;-79
2022/05/22 07:10:01;;;;;;;5.90;3.47;;;21.40;45.50;;;;;;5076087;28;20032;-79
2022/05/22 07:12:27;;;;;;;6.35;3.03;;;21.50;44.80;;;;;;5066091;28;20439;-77
2022/05/22 07:14:55;;;;;;;3.85;2.15;;;21.50;44.40;;;;;;5083620;28;20025;-80
2022/05/22 07:17:24;;;;;;;4.85;2.72;;;21.60;44.50;;;;;;5093111;28;20432;-79
2022/05/22 07:19:51;;;;;;;4.90;2.80;;;21.60;43.90;;;;;;5095826;28;20386;-79
2022/05/22 07:22:17;;;;;;;5.13;2.75;;;21.60;43.70;;;;;;5094229;28;20469;-78
2022/05/22 07:24:43;;;;;;;4.18;2.30;;;21.70;43.10;;;;;;5077332;28;20027;-81
2022/05/22 07:27:10;;;;;;;3.47;2.08;;;21.70;43.00;;;;;;5095605;28;20470;-75
2022/05/22 07:29:36;;;;;;;5.32;2.40;;;21.80;43.30;;;;;;5095511;28;20028;-79
2022/05/22 07:32:04;;;;;;;3.47;2.20;;;21.80;43.30;;;;;;5077075;28;20070;-77
2022/05/22 07:34:31;;;;;;;6.43;2.45;;;21.80;43.30;;;;;;5075318;28;20485;-80
2022/05/22 07:36:59;;;;;;;5.03;2.10;;;21.90;42.80;;;;;;5057165;28;20498;-77
2022/05/22 07:39:26;;;;;;;3.42;1.80;;;21.90;41.90;;;;;;5075022;28;20021;-79
2022/05/22 07:41:52;;;;;;;4.63;1.98;;;22.00;42.10;;;;;;5057328;28;20486;-77
2022/05/22 07:44:19;;;;;;;4.45;2.28;;;22.10;41.90;;;;;;5081810;28;20047;-80
2022/05/22 07:46:44;;;;;;;5.68;1.88;;;22.10;41.20;;;;;;5095086;28;20381;-77
2022/05/22 07:50:16;;;;;;;2.42;1.48;;;22.20;41.50;;;;;;5076670;28;20039;-81
2022/05/22 07:51:57;;;;;;;4.07;2.40;;;22.20;41.30;;;;;;5094568;28;20020;-77
2022/05/22 07:54:23;;;;;;;4.13;1.70;;;22.30;40.20;;;;;;5078409;28;20377;-77
2022/05/22 07:56:49;;;;;;;4.75;2.30;;;22.30;40.60;;;;;;5094889;28;20032;-81
2022/05/22 07:59:14;;;;;;;7.05;2.42;;;22.40;40.50;;;;;;5095119;28;20049;-79
2022/05/22 08:01:40;;;;;;;5.45;2.20;;;22.40;40.20;;;;;;5094591;28;20134;-81
2022/05/22 08:04:06;;;;;;;4.38;1.75;;;22.40;39.70;;;;;;5092978;28;20028;-80
2022/05/22 08:06:33;;;;;;;6.82;1.67;;;22.40;40.10;;;;;;5094690;28;20044;-79
2022/05/22 08:08:59;;;;;;;6.45;1.42;;;22.50;39.80;;;;;;5094785;28;20073;-75
2022/05/22 08:11:25;;;;;;;4.32;1.73;;;22.50;39.90;;;;;;5093063;28;20027;-76
2022/05/22 08:13:51;;;;;;;3.92;1.38;;;22.60;40.00;;;;;;5090762;28;20385;-79
2022/05/22 08:16:16;;;;;;;3.75;1.05;;;22.60;37.80;;;;;;5076184;28;20035;-78
2022/05/22 08:18:42;;;;;;;4.80;1.58;;;22.60;38.40;;;;;;5074563;28;20027;-82
2022/05/22 08:21:08;;;;;;;2.05;0.88;;;22.70;37.20;;;;;;5082141;28;20035;-78
2022/05/22 08:23:34;;;;;;;3.30;1.08;;;22.70;37.70;;;;;;5074451;28;20058;-77
2022/05/22 08:26:00;;;;;;;3.28;1.20;;;22.70;37.60;;;;;;5092898;28;20393;-79
2022/05/22 08:28:27;;;;;;;4.78;1.20;;;22.80;37.00;;;;;;5076244;28;20020;-81
2022/05/22 08:30:52;;;;;;;4.85;1.00;;;22.80;37.10;;;;;;5094410;28;20016;-79
2022/05/22 08:33:18;;;;;;;2.35;1.10;;;22.80;36.50;;;;;;5095500;28;20379;-78
2022/05/22 08:35:45;;;;;;;4.72;1.55;;;22.80;36.10;;;;;;5076715;28;20111;-80
2022/05/22 08:38:12;;;;;;;1.88;0.80;;;22.90;36.10;;;;;;5093613;28;20031;-82
2022/05/22 08:41:05;;;;;;;4.07;1.30;;;22.90;36.80;;;;;;5095094;28;20377;-80
2022/05/22 08:43:35;;;;;;;4.47;1.23;;;22.90;35.60;;;;;;5030693;28;20106;-80
2022/05/22 08:46:11;;;;;;;3.88;1.00;;;22.90;35.60;;;;;;5084653;28;20107;-81
2022/05/22 08:48:51;;;;;;;3.03;0.75;;;23.00;36.20;;;;;;5074233;28;20442;-83
2022/05/22 08:51:31;;;;;;;4.95;1.00;;;23.00;36.30;;;;;;5055878;28;20047;-80
2022/05/22 08:54:05;;;;;;;2.97;1.08;;;23.10;35.90;;;;;;5073774;28;20027;-80
2022/05/22 08:59:25;;;;;;;3.05;0.90;;;23.20;35.00;;;;;;5073656;28;20130;-82
2022/05/22 09:02:26;;;;;;;2.75;0.88;;;23.20;33.90;;;;;;5073144;28;20456;-82
2022/05/22 09:05:14;;;;;;;6.18;2.03;;;23.20;34.00;;;;;;5073941;28;20394;-81
2022/05/22 09:07:58;;;;;;;3.28;1.17;;;23.30;34.70;;;;;;5056531;28;20166;-83
2022/05/22 09:10:43;;;;;;;;;;;23.30;34.20;;;;;;5074892;28;20020;-77
2022/05/22 09:13:39;;;;;;;2.10;1.17;;;23.40;36.10;;;;;;5073591;28;19911;-79
2022/05/22 09:16:20;;;;;;;1.48;0.70;;;23.40;35.00;;;;;;5070640;28;20494;-78
2022/05/22 09:18:58;;;;;;;2.55;1.30;;;23.50;34.90;;;;;;5059558;28;20396;-79
2022/05/22 09:22:00;;;;;;;1.95;0.90;;;23.50;34.90;;;;;;5074988;28;20078;-79
2022/05/22 09:24:58;;;;;;;5.38;1.30;;;23.50;35.20;;;;;;5089444;28;20050;-81
2022/05/22 09:27:34;;;;;;;6.13;1.85;;;23.60;34.70;;;;;;5078435;28;20027;-78
2022/05/22 09:30:26;;;;;;;4.18;1.10;;;23.60;34.70;;;;;;5090246;28;20404;-78
2022/05/22 09:33:19;;;;;;;2.90;1.20;;;23.60;35.00;;;;;;5082456;28;20071;-81
2022/05/22 09:36:07;;;;;;;3.05;1.08;;;23.70;35.00;;;;;;5093549;28;20024;-77
2022/05/22 09:38:59;;;;;;;4.07;1.27;;;23.70;35.00;;;;;;5085610;28;20029;-80
2022/05/22 09:41:36;;;;;;;1.65;0.73;;;23.70;35.00;;;;;;5073313;28;20024;-79
2022/05/22 09:44:20;;;;;;;3.28;1.08;;;23.80;34.70;;;;;;5073143;28;20047;-81
2022/05/22 09:46:52;;;;;;;;;;;23.80;34.50;;;;;;5073914;28;20024;-81
2022/05/22 09:49:44;;;;;;;3.65;1.40;;;23.80;35.40;;;;;;5073690;28;19908;-80
2022/05/22 09:52:26;;;;;;;5.15;1.50;;;23.90;34.30;;;;;;5077319;28;20025;-74
2022/05/22 09:55:04;;;;;;;2.97;0.95;;;23.80;34.40;;;;;;5102329;28;20025;-75
2022/05/22 09:57:51;;;;;;;3.00;1.08;;;23.80;34.30;;;;;;5102920;28;20072;-75
2022/05/22 10:00:20;;;;;;;1.88;0.93;;;23.80;34.50;;;;;;5095768;28;20066;-75
2022/05/22 10:02:55;;;;;;;2.15;0.95;;;23.90;34.20;;;;;;5079120;28;20111;-81
2022/05/22 10:05:30;;;;;;;2.08;0.90;;;23.90;34.60;;;;;;5093085;28;20028;-78
2022/05/22 10:08:26;;;;;;;7.75;1.23;;;23.90;34.60;;;;;;5093219;28;20044;-81
2022/05/22 10:11:00;;;;;;;3.45;1.00;;;24.00;34.60;;;;;;5075362;28;20117;-78
2022/05/22 10:13:45;;;;;;;2.42;0.90;;;24.00;34.30;;;;;;5096561;28;20020;-80
2022/05/22 10:16:24;;;;;;;2.03;1.02;;;24.10;34.20;;;;;;5097096;28;20362;-75
2022/05/22 10:19:24;;;;;;;5.00;0.73;;;24.20;33.60;;;;;;5078875;28;20031;-75
2022/05/22 10:22:13;;;;;;;2.45;1.05;;;24.20;33.70;;;;;;5097061;28;20133;-82
2022/05/22 10:24:51;;;;;;;2.30;0.90;;;24.30;33.20;;;;;;5078747;28;20047;-82
2022/05/22 10:27:49;;;;;;;2.10;0.70;;;24.30;33.00;;;;;;5096885;28;20024;-80
2022/05/22 10:30:32;;;;;;;4.32;1.10;;;24.40;33.30;;;;;;5078681;28;20473;-82
2022/05/22 10:33:16;;;;;;;1.88;0.90;;;24.40;33.10;;;;;;5096618;28;20024;-78
2022/05/22 10:35:47;;;;;;;2.17;1.02;;;24.40;33.20;;;;;;5096755;28;20035;-82
2022/05/22 10:38:21;;;;;;;4.95;1.10;;;24.50;33.10;;;;;;5096723;28;20031;-81
2022/05/22 10:43:40;;;;;;;4.07;1.40;;;24.50;32.80;;;;;;5096786;28;20035;-77
2022/05/22 10:46:06;;;;;;;5.65;1.23;;;24.50;32.70;;;;;;5096615;28;20020;-76
2022/05/22 10:48:35;;;;;;;2.92;0.77;;;24.60;32.60;;;;;;5096205;28;20027;-81
2022/05/22 10:51:07;;;;;;;4.38;1.27;;;24.60;32.90;;;;;;5097891;28;20034;-80
2022/05/22 10:53:45;;;;;;;2.67;0.60;;;24.70;33.30;;;;;;5078355;28;20500;-80
2022/05/22 10:56:14;;;;;;;2.55;1.08;;;24.70;31.70;;;;;;5097171;28;20028;-78
2022/05/22 10:58:58;;;;;;;4.30;0.90;;;24.70;30.50;;;;;;5096474;28;20028;-78
2022/05/22 11:01:27;;;;;;;2.28;1.05;;;24.80;30.30;;;;;;5096210;28;20378;-79
2022/05/22 11:04:07;;;;;;;4.10;1.10;;;24.80;31.00;;;;;;5096338;28;20031;-82
2022/05/22 11:06:38;;;;;;;3.90;0.80;;;24.80;30.80;;;;;;5078305;28;20484;-79
2022/05/22 11:09:07;;;;;;;0.98;0.70;;;24.80;30.50;;;;;;5096046;28;20117;-80
2022/05/22 11:11:37;;;;;;;1.88;0.88;;;24.90;31.00;;;;;;5095859;28;20028;-79
2022/05/22 11:14:20;;;;;;;2.80;0.80;;;24.90;31.30;;;;;;5078115;28;20020;-81
2022/05/22 11:16:47;;;;;;;4.47;1.00;;;25.00;31.30;;;;;;5096083;28;20105;-81
2022/05/22 11:19:25;;;;;;;2.22;0.75;;;25.00;30.10;;;;;;5095827;28;20304;-77
2022/05/22 11:22:12;;;;;;;0.77;0.52;;;25.10;30.90;;;;;;5095752;28;20055;-78
2022/05/22 11:24:49;;;;;;;2.78;1.10;;;25.20;30.60;;;;;;5094693;28;20024;-78
2022/05/22 11:27:34;;;;;;;4.40;1.25;;;25.10;30.10;;;;;;5077692;28;20023;-79
2022/05/22 11:30:33;;;;;;;3.58;0.98;;;25.20;29.80;;;;;;5095781;28;20106;-77
2022/05/22 11:33:29;;;;;;;2.25;0.85;;;25.20;30.10;;;;;;5023533;28;20510;-77
2022/05/22 11:35:55;;;;;;;4.25;1.40;;;25.20;30.80;;;;;;5096208;28;20032;-84
2022/05/22 11:38:39;;;;;;;2.63;1.00;;;25.30;29.70;;;;;;5078730;28;20022;-77
2022/05/22 11:41:26;;;;;;;3.25;1.00;;;25.30;30.00;;;;;;5095444;28;20023;-80
2022/05/22 11:44:09;;;;;;;8.48;1.38;;;25.30;30.30;;;;;;5095486;28;20024;-79
2022/05/22 11:46:43;;;;;;;1.70;0.90;;;25.40;30.00;;;;;;5077492;28;20119;-82
2022/05/22 11:49:33;;;;;;;1.88;0.82;;;25.40;29.40;;;;;;5094923;28;20027;-81
2022/05/22 11:55:07;;;;;;;2.17;1.17;;;25.40;29.90;;;;;;5095219;28;20150;-82
2022/05/22 11:57:59;;;;;;;1.98;0.60;;;25.50;29.00;;;;;;5095349;28;20016;-81
2022/05/22 12:00:46;;;;;;;1.90;0.90;;;25.50;29.00;;;;;;5076732;28;20044;-80
2022/05/22 12:03:17;;;;;;;5.07;0.90;;;25.50;28.70;;;;;;5094828;28;20021;-79
2022/05/22 12:06:10;;;;;;;1.30;0.75;;;25.50;28.90;;;;;;5095026;28;20401;-82
2022/05/22 12:09:11;;;;;;;2.85;0.98;;;25.50;29.30;;;;;;5095894;28;20031;-80
2022/05/22 12:11:57;;;;;;;3.00;1.00;;;25.70;29.60;;;;;;5096858;28;20024;-77
2022/05/22 12:14:51;;;;;;;4.15;1.67;;;25.70;29.60;;;;;;5095957;28;20021;-79
2022/05/22 12:17:43;;;;;;;4.82;1.67;;;25.80;29.50;;;;;;5095742;28;20358;-80
2022/05/22 12:20:19;;;;;;;3.45;1.17;;;25.80;28.70;;;;;;5073957;28;20031;-82
2022/05/22 12:23:15;;;;;;;2.85;0.93;;;25.90;28.90;;;;;;5076629;28;20023;-82
2022/05/22 12:25:58;;;;;;;2.95;1.00;;;25.90;28.80;;;;;;5076646;28;20469;-80
2022/05/22 12:28:57;;;;;;;1.83;1.00;;;26.00;28.60;;;;;;5094749;28;20032;-79
2022/05/22 12:31:43;;;;;;;3.05;1.70;;;26.00;27.60;;;;;;5076320;28;20047;-79
2022/05/22 12:34:16;;;;;;;2.65;1.05;;;26.00;27.60;;;;;;5094295;28;20027;-80
2022/05/22 12:36:49;;;;;;;2.58;0.85;;;26.00;28.00;;;;;;5094617;28;20028;-84
2022/05/22 12:39:16;;;;;;;2.55;1.17;;;26.00;27.70;;;;;;5094204;28;20028;-77
2022/05/22 12:42:00;;;;;;;2.28;0.93;;;26.10;27.90;;;;;;5094104;28;20091;-79
2022/05/22 12:44:28;;;;;;;9.25;1.33;;;26.10;28.00;;;;;;5094258;28;20020;-84
2022/05/22 12:46:55;;;;;;;3.50;1.00;;;26.20;27.90;;;;;;5076216;28;20024;-79
2022/05/22 12:49:25;;;;;;;2.47;1.10;;;26.20;27.20;;;;;;5094027;28;20515;-79
2022/05/22 12:52:15;;;;;;;1.05;0.77;;;26.20;27.20;;;;;;5087049;28;20054;-78
2022/05/22 12:54:41;;;;;;;2.83;1.02;;;26.20;27.60;;;;;;5055759;28;20079;-82
2022/05/22 12:57:19;;;;;;;1.70;0.90;;;26.30;27.80;;;;;;5073661;28;20539;-79
2022/05/22 13:00:12;;;;;;;2.35;0.85;;;26.30;27.20;;;;;;5073600;28;20165;-82
2022/05/22 13:02:44;;;;;;;2.67;1.00;;;26.40;27.10;;;;;;5073061;28;20078;-78
2022/05/22 13:05:30;;;;;;;1.88;0.85;;;26.50;27.80;;;;;;5055798;28;20027;-82
2022/05/22 13:07:57;;;;;;;4.05;1.35;;;26.60;28.00;;;;;;5055736;28;20055;-82
2022/05/22 13:10:45;;;;;;;4.93;0.93;;;26.60;28.10;;;;;;5073462;28;20100;-81
2022/05/22 13:13:14;;;;;;;4.43;1.20;;;26.60;28.20;;;;;;5073168;28;20055;-79
2022/05/22 13:16:09;;;;;;;1.58;1.13;;;26.60;28.00;;;;;;5054856;28;20512;-82
2022/05/22 13:18:49;;;;;;;1.80;0.88;;;26.70;28.10;;;;;;5047000;28;20094;-80
2022/05/22 13:21:39;;;;;;;3.63;1.40;;;26.80;27.80;;;;;;5073495;28;20021;-79
2022/05/22 13:24:22;;;;;;;2.22;0.80;;;26.80;27.80;;;;;;5055350;28;20029;-78
2022/05/22 13:27:24;;;;;;;2.00;0.80;;;27.00;28.00;;;;;;5073344;28;20016;-84